Time;durP1;ratioP1;P1;durP2;ratioP2;P2;SDS_P1;SDS_P2;PMS_P1;PMS_P2;Temp;Humidity;BMP_temperature;BMP_pressure;BME280_temperature;BME280_humidity;BME280_pressure;Samples;Min_cycle;Max_cycle;Signal;HPM_P1;HPM_P2
2021/12/27 06:00:12;;;;;;;3.40;3.20;;;8.90;97.20;;;;;;1727909;28;20239;-82
2021/12/27 06:01:04;;;;;;;3.40;3.10;;;8.90;97.20;;;;;;1727869;28;20614;-82
2021/12/27 06:01:56;;;;;;;3.67;3.30;;;8.90;97.20;;;;;;1727855;28;20650;-82
2021/12/27 06:02:47;;;;;;;4.13;3.40;;;8.90;97.20;;;;;;1727718;28;20221;-83
2021/12/27 06:03:39;;;;;;;3.60;3.30;;;8.90;97.20;;;;;;1723240;28;20198;-83
2021/12/27 06:04:29;;;;;;;5.30;3.45;;;8.90;97.20;;;;;;1721014;28;20455;-83
2021/12/27 06:05:22;;;;;;;4.50;4.10;;;8.90;97.20;;;;;;1721110;28;20201;-83
2021/12/27 06:06:14;;;;;;;5.30;4.60;;;8.90;97.20;;;;;;1721108;28;20216;-83
2021/12/27 06:07:06;;;;;;;4.53;4.22;;;8.90;97.20;;;;;;1722042;28;20196;-83
2021/12/27 06:07:57;;;;;;;4.72;4.32;;;8.90;97.20;;;;;;1722400;28;20212;-83
2021/12/27 06:08:48;;;;;;;4.30;3.90;;;8.90;97.20;;;;;;1722003;28;20207;-83
2021/12/27 06:09:39;;;;;;;4.30;3.90;;;8.90;97.20;;;;;;1722263;28;20644;-83
2021/12/27 06:10:31;;;;;;;4.40;3.90;;;8.90;97.20;;;;;;1722376;28;20205;-83
2021/12/27 06:11:22;;;;;;;3.72;3.42;;;8.90;97.20;;;;;;1722383;28;20435;-83
2021/12/27 06:12:14;;;;;;;5.40;4.10;;;8.90;97.20;;;;;;1722160;28;20201;-83
2021/12/27 06:13:04;;;;;;;4.20;3.80;;;9.00;97.20;;;;;;1722293;28;20260;-83
2021/12/27 06:13:56;;;;;;;5.47;3.93;;;9.00;97.20;;;;;;1722589;28;20213;-83
2021/12/27 06:14:47;;;;;;;5.13;3.90;;;9.00;97.20;;;;;;1722218;28;20451;-83
2021/12/27 06:15:40;;;;;;;4.00;3.70;;;9.00;97.20;;;;;;1722140;28;20293;-83
2021/12/27 06:16:31;;;;;;;6.47;3.65;;;9.00;97.20;;;;;;1722421;28;20205;-83
2021/12/27 06:17:22;;;;;;;4.40;4.00;;;9.00;97.20;;;;;;1722327;28;20285;-83
2021/12/27 06:18:13;;;;;;;4.18;3.88;;;9.00;97.20;;;;;;1721808;28;20260;-83
2021/12/27 06:19:05;;;;;;;4.63;4.23;;;9.00;97.20;;;;;;1722221;28;20205;-83
2021/12/27 06:19:56;;;;;;;4.30;4.00;;;9.00;97.20;;;;;;1722430;28;20697;-83
2021/12/27 06:20:47;;;;;;;3.87;3.43;;;9.00;97.20;;;;;;1722214;28;20217;-83
2021/12/27 06:21:38;;;;;;;4.00;3.70;;;9.10;97.20;;;;;;1722435;28;20689;-83
2021/12/27 06:22:30;;;;;;;4.13;3.77;;;9.10;97.20;;;;;;1722164;28;20577;-83
2021/12/27 06:23:21;;;;;;;4.32;4.03;;;9.00;97.20;;;;;;1723409;28;20236;-83
2021/12/27 06:24:12;;;;;;;5.50;3.73;;;9.00;97.20;;;;;;1728884;28;20204;-83
2021/12/27 06:25:03;;;;;;;3.85;3.55;;;9.00;97.20;;;;;;1729195;28;20243;-83
2021/12/27 06:25:55;;;;;;;3.90;3.60;;;9.00;97.20;;;;;;1729135;28;20204;-83
2021/12/27 06:26:46;;;;;;;4.00;3.30;;;9.00;97.20;;;;;;1729138;28;20212;-83
2021/12/27 06:27:38;;;;;;;3.60;3.30;;;9.00;97.20;;;;;;1728968;28;20220;-83
2021/12/27 06:28:31;;;;;;;4.03;3.72;;;9.00;97.20;;;;;;1728649;28;20204;-83
2021/12/27 06:29:23;;;;;;;4.10;3.75;;;8.90;97.20;;;;;;1728907;28;20188;-83
2021/12/27 06:30:15;;;;;;;4.50;4.10;;;8.90;97.20;;;;;;1729019;28;20208;-83
2021/12/27 06:31:08;;;;;;;4.70;4.30;;;8.90;97.20;;;;;;1728776;28;20298;-83
2021/12/27 06:31:59;;;;;;;5.43;3.75;;;8.80;97.20;;;;;;1729074;28;20239;-83
2021/12/27 06:32:50;;;;;;;4.50;4.10;;;8.80;97.20;;;;;;1728779;28;20231;-83
2021/12/27 06:33:41;;;;;;;4.57;4.22;;;8.80;97.20;;;;;;1724640;28;20621;-83
2021/12/27 06:34:33;;;;;;;4.10;3.70;;;8.80;97.20;;;;;;1722389;28;20197;-83
2021/12/27 06:35:23;;;;;;;6.07;4.38;;;8.80;97.20;;;;;;1722340;28;20225;-83
2021/12/27 06:36:16;;;;;;;4.67;4.27;;;8.80;97.20;;;;;;1722187;28;20212;-83
2021/12/27 06:37:07;;;;;;;4.50;4.10;;;8.80;97.20;;;;;;1722571;28;20212;-83
2021/12/27 06:37:59;;;;;;;4.60;4.25;;;8.80;97.20;;;;;;1722143;28;20215;-83
2021/12/27 06:38:50;;;;;;;4.28;3.90;;;8.80;97.20;;;;;;1722105;28;20209;-83
2021/12/27 06:39:41;;;;;;;4.70;4.40;;;8.80;97.20;;;;;;1722079;28;20284;-83
2021/12/27 06:40:32;;;;;;;4.40;4.03;;;8.80;97.20;;;;;;1722237;28;20488;-83
2021/12/27 06:41:25;;;;;;;5.25;4.75;;;8.90;97.20;;;;;;1721943;28;20661;-83
2021/12/27 06:42:16;;;;;;;4.88;4.50;;;8.90;97.20;;;;;;1722095;28;20668;-83
2021/12/27 06:43:08;;;;;;;4.53;4.22;;;8.90;97.20;;;;;;1721948;28;20650;-83
2021/12/27 06:43:58;;;;;;;4.63;4.25;;;8.90;97.20;;;;;;1722413;28;20582;-83
2021/12/27 06:44:50;;;;;;;5.57;5.07;;;8.90;97.20;;;;;;1722139;28;20567;-82
2021/12/27 06:45:41;;;;;;;4.93;4.47;;;8.90;97.20;;;;;;1722076;28;20198;-83
2021/12/27 06:46:34;;;;;;;4.50;4.17;;;9.00;97.20;;;;;;1722031;28;20215;-82
2021/12/27 06:47:26;;;;;;;4.20;3.90;;;9.00;97.20;;;;;;1722037;28;20971;-83
2021/12/27 06:48:17;;;;;;;4.80;4.40;;;9.00;97.20;;;;;;1728248;28;20192;-83
2021/12/27 06:49:08;;;;;;;5.10;4.70;;;9.00;97.20;;;;;;1728843;28;20729;-83
2021/12/27 06:50:00;;;;;;;4.63;4.33;;;9.00;97.20;;;;;;1728756;28;20694;-82
2021/12/27 06:50:51;;;;;;;4.55;4.15;;;9.00;97.20;;;;;;1729066;28;20211;-82
2021/12/27 06:51:42;;;;;;;4.70;4.30;;;9.00;97.20;;;;;;1728693;28;20623;-82
2021/12/27 06:52:34;;;;;;;4.70;4.30;;;9.00;97.20;;;;;;1728546;28;20622;-82
2021/12/27 06:53:28;;;;;;;4.68;4.28;;;9.00;97.20;;;;;;1728988;28;20211;-82
2021/12/27 06:54:20;;;;;;;4.45;4.10;;;9.00;97.20;;;;;;1728597;28;20201;-82
2021/12/27 06:55:12;;;;;;;5.97;4.60;;;9.00;97.20;;;;;;1728945;28;20216;-82
2021/12/27 06:56:06;;;;;;;4.20;3.90;;;9.00;97.20;;;;;;1728534;28;20550;-83
2021/12/27 06:56:59;;;;;;;4.10;3.80;;;9.00;97.20;;;;;;1729036;28;20652;-83
2021/12/27 06:57:51;;;;;;;4.78;4.47;;;8.90;97.20;;;;;;1725740;28;20722;-82
2021/12/27 06:58:42;;;;;;;4.28;3.88;;;8.90;97.20;;;;;;1721859;28;20234;-83
2021/12/27 06:59:34;;;;;;;4.47;4.15;;;8.90;97.20;;;;;;1721771;28;20201;-83
2021/12/27 07:00:25;;;;;;;4.00;3.70;;;8.90;97.20;;;;;;1721954;28;20718;-82
2021/12/27 07:01:16;;;;;;;3.60;3.30;;;8.90;97.20;;;;;;1722093;28;20597;-83
2021/12/27 07:02:08;;;;;;;4.20;3.90;;;8.90;97.20;;;;;;1722006;28;20476;-83
2021/12/27 07:03:00;;;;;;;3.50;3.20;;;8.90;97.20;;;;;;1721875;28;20221;-83
2021/12/27 07:03:51;;;;;;;3.90;3.60;;;8.90;97.20;;;;;;1722049;28;20332;-83
2021/12/27 07:04:43;;;;;;;4.07;3.40;;;8.90;97.20;;;;;;1721940;28;20314;-83
2021/12/27 07:05:34;;;;;;;4.57;4.18;;;8.90;97.20;;;;;;1722161;28;20232;-82
2021/12/27 07:06:25;;;;;;;4.83;3.50;;;8.80;97.20;;;;;;1722172;28;20215;-83
2021/12/27 07:07:16;;;;;;;3.65;3.40;;;8.80;97.20;;;;;;1722047;28;20614;-83
2021/12/27 07:08:08;;;;;;;4.00;3.70;;;8.80;97.20;;;;;;1726009;28;20612;-83
2021/12/27 07:08:59;;;;;;;4.22;3.83;;;8.80;97.20;;;;;;1728778;28;20216;-83
2021/12/27 07:09:50;;;;;;;5.20;3.60;;;8.80;97.20;;;;;;1728807;28;20280;-82
2021/12/27 07:10:41;;;;;;;4.00;3.70;;;8.80;97.20;;;;;;1728952;28;20580;-83
2021/12/27 07:11:33;;;;;;;3.63;3.43;;;8.70;97.20;;;;;;1729021;28;20609;-83
2021/12/27 07:12:24;;;;;;;4.30;3.90;;;8.70;97.20;;;;;;1728803;28;20452;-83
2021/12/27 07:13:16;;;;;;;3.40;3.20;;;8.70;97.20;;;;;;1728827;28;20205;-83
2021/12/27 07:14:07;;;;;;;4.25;3.85;;;8.70;97.20;;;;;;1729154;28;20440;-83
2021/12/27 07:14:59;;;;;;;3.80;3.58;;;8.70;97.20;;;;;;1728758;28;20331;-83
2021/12/27 07:15:49;;;;;;;4.13;3.83;;;8.60;97.20;;;;;;1728965;28;20208;-83
2021/12/27 07:16:41;;;;;;;4.40;4.00;;;8.60;97.20;;;;;;1729020;28;20204;-83
2021/12/27 07:17:33;;;;;;;4.60;4.30;;;8.60;97.20;;;;;;1728624;28;20589;-83
2021/12/27 07:18:25;;;;;;;5.40;5.00;;;8.60;97.20;;;;;;1720945;28;20205;-83
2021/12/27 07:19:15;;;;;;;5.68;5.18;;;8.60;97.20;;;;;;1722342;28;20201;-83
2021/12/27 07:20:09;;;;;;;6.13;5.70;;;8.60;97.20;;;;;;1722058;28;20208;-83
2021/12/27 07:21:00;;;;;;;6.32;5.80;;;8.50;97.20;;;;;;1722208;28;20217;-83
2021/12/27 07:21:51;;;;;;;8.77;6.13;;;8.50;97.20;;;;;;1722372;28;20284;-83
2021/12/27 07:22:42;;;;;;;6.43;5.82;;;8.50;97.20;;;;;;1721978;28;20287;-83
2021/12/27 07:23:34;;;;;;;6.20;5.70;;;8.50;97.20;;;;;;1722134;28;20224;-83
2021/12/27 07:24:25;;;;;;;6.18;5.68;;;8.50;97.20;;;;;;1722195;28;20205;-83
2021/12/27 07:25:17;;;;;;;6.07;5.67;;;8.50;97.20;;;;;;1721939;28;20201;-83
2021/12/27 07:26:07;;;;;;;6.22;5.78;;;8.50;97.20;;;;;;1722308;28;20208;-83
2021/12/27 07:26:59;;;;;;;5.83;5.10;;;8.50;97.20;;;;;;1721941;28;20709;-83
2021/12/27 07:27:50;;;;;;;6.20;5.70;;;8.40;97.20;;;;;;1723963;28;20304;-83
2021/12/27 07:28:42;;;;;;;6.97;6.37;;;8.40;97.20;;;;;;1728148;28;20201;-83
2021/12/27 07:29:33;;;;;;;5.95;5.55;;;8.40;97.20;;;;;;1728578;28;20200;-83
2021/12/27 07:30:25;;;;;;;5.80;5.40;;;8.40;97.20;;;;;;1728571;28;20200;-83
2021/12/27 07:31:16;;;;;;;5.55;5.05;;;8.50;97.20;;;;;;1728664;28;20212;-83
2021/12/27 07:32:08;;;;;;;5.27;4.80;;;8.40;97.20;;;;;;1728471;28;20201;-83
2021/12/27 07:33:01;;;;;;;5.32;4.93;;;8.40;97.20;;;;;;1728393;28;20231;-83
2021/12/27 07:33:53;;;;;;;4.85;4.45;;;8.40;97.20;;;;;;1728762;28;20208;-83
2021/12/27 07:34:45;;;;;;;4.82;4.47;;;8.40;97.20;;;;;;1728647;28;20212;-83
2021/12/27 07:35:37;;;;;;;4.80;4.50;;;8.40;97.20;;;;;;1728295;28;20207;-83
2021/12/27 07:36:29;;;;;;;4.80;4.50;;;8.40;97.20;;;;;;1728659;28;20447;-83
2021/12/27 07:37:21;;;;;;;4.95;4.55;;;8.40;97.20;;;;;;1728513;28;20204;-83
2021/12/27 07:38:12;;;;;;;4.35;4.05;;;8.40;97.20;;;;;;1723156;28;20197;-83
2021/12/27 07:39:06;;;;;;;4.77;4.43;;;8.40;97.20;;;;;;1721541;28;20232;-84
2021/12/27 07:39:56;;;;;;;4.40;4.10;;;8.40;97.20;;;;;;1721709;28;20201;-83
2021/12/27 07:40:48;;;;;;;4.70;4.37;;;8.40;97.20;;;;;;1721528;28;20197;-83
2021/12/27 07:41:39;;;;;;;5.20;4.80;;;8.40;97.20;;;;;;1721708;28;20596;-83
2021/12/27 07:42:31;;;;;;;4.40;4.00;;;8.40;97.20;;;;;;1721757;28;20552;-83
2021/12/27 07:43:21;;;;;;;5.20;4.35;;;8.40;97.20;;;;;;1721340;28;20451;-83
2021/12/27 07:44:13;;;;;;;5.60;5.20;;;8.50;97.20;;;;;;1721756;28;20280;-84
2021/12/27 07:45:04;;;;;;;5.00;4.60;;;8.50;97.20;;;;;;1721914;28;20209;-84
2021/12/27 07:45:56;;;;;;;5.50;5.10;;;8.50;97.20;;;;;;1721624;28;20201;-84
2021/12/27 07:46:47;;;;;;;4.60;4.30;;;8.50;97.20;;;;;;1721794;28;20201;-84
2021/12/27 07:47:39;;;;;;;5.10;4.70;;;8.60;97.20;;;;;;1721664;28;20204;-84
2021/12/27 07:48:31;;;;;;;5.65;4.50;;;8.60;97.20;;;;;;1728063;28;20647;-84
2021/12/27 07:49:23;;;;;;;4.93;4.53;;;8.60;97.20;;;;;;1728774;28;20204;-83
2021/12/27 07:50:13;;;;;;;4.75;4.35;;;8.60;97.20;;;;;;1728625;28;20258;-83
2021/12/27 07:51:05;;;;;;;4.80;4.40;;;8.60;97.20;;;;;;1728127;28;20258;-84
2021/12/27 07:51:56;;;;;;;5.05;4.65;;;8.60;97.20;;;;;;1728511;28;20208;-83
2021/12/27 07:52:47;;;;;;;5.03;4.20;;;8.60;97.20;;;;;;1728120;28;20220;-83
2021/12/27 07:53:38;;;;;;;5.70;5.10;;;8.60;97.20;;;;;;1728373;28;20220;-81
2021/12/27 07:54:30;;;;;;;5.80;5.30;;;8.60;97.20;;;;;;1728210;28;20199;-84
2021/12/27 07:55:21;;;;;;;5.63;5.13;;;8.70;97.20;;;;;;1728284;28;20291;-84
2021/12/27 07:56:13;;;;;;;5.37;4.87;;;8.70;97.20;;;;;;1728376;28;20204;-84
2021/12/27 07:57:05;;;;;;;5.25;4.75;;;8.70;97.20;;;;;;1728329;28;20448;-84
2021/12/27 07:57:59;;;;;;;6.50;5.60;;;8.70;97.20;;;;;;1726451;28;20208;-83
2021/12/27 07:58:49;;;;;;;6.50;5.90;;;8.70;97.20;;;;;;1721444;28;20260;-84
2021/12/27 07:59:42;;;;;;;6.47;4.93;;;8.80;97.20;;;;;;1721694;28;20201;-84
2021/12/27 08:00:33;;;;;;;6.05;5.45;;;8.80;97.20;;;;;;1721702;28;20630;-84
2021/12/27 08:01:24;;;;;;;5.30;4.80;;;8.80;97.20;;;;;;1721797;28;20616;-85
2021/12/27 08:02:15;;;;;;;6.13;5.53;;;8.80;97.20;;;;;;1722191;28;20213;-85
2021/12/27 08:03:07;;;;;;;5.03;4.53;;;8.80;97.20;;;;;;1721472;28;20237;-85
2021/12/27 08:03:59;;;;;;;4.90;4.50;;;8.80;97.20;;;;;;1721772;28;20452;-84
2021/12/27 08:04:51;;;;;;;4.10;3.75;;;8.90;97.20;;;;;;1721735;28;20550;-85
2021/12/27 08:05:41;;;;;;;4.25;3.95;;;8.90;97.20;;;;;;1721883;28;20205;-85
2021/12/27 08:06:33;;;;;;;5.13;4.53;;;8.90;97.20;;;;;;1721514;28;20197;-85
2021/12/27 08:07:24;;;;;;;6.35;4.22;;;8.90;97.20;;;;;;1721618;28;20209;-85
2021/12/27 08:08:16;;;;;;;4.30;3.90;;;8.90;97.20;;;;;;1724933;28;20221;-83
2021/12/27 08:09:07;;;;;;;6.10;4.15;;;8.90;97.20;;;;;;1728258;28;20240;-83
2021/12/27 08:09:59;;;;;;;4.10;3.80;;;8.90;97.20;;;;;;1728276;28;20204;-84
2021/12/27 08:10:50;;;;;;;4.60;4.20;;;8.90;97.20;;;;;;1728604;28;20208;-83
2021/12/27 08:11:41;;;;;;;4.20;3.80;;;8.90;97.20;;;;;;1728292;28;20678;-83
2021/12/27 08:12:32;;;;;;;4.82;4.43;;;8.90;97.20;;;;;;1728583;28;20223;-84
2021/12/27 08:13:24;;;;;;;5.80;5.30;;;8.90;97.20;;;;;;1728489;28;20204;-84
2021/12/27 08:14:15;;;;;;;5.70;5.20;;;8.90;97.20;;;;;;1728677;28;20475;-83
2021/12/27 08:15:08;;;;;;;5.57;5.10;;;8.90;97.20;;;;;;1728204;28;20204;-83
2021/12/27 08:15:59;;;;;;;5.15;4.75;;;8.90;97.20;;;;;;1728550;28;20288;-83
2021/12/27 08:16:51;;;;;;;5.40;4.90;;;8.90;97.20;;;;;;1728320;28;20307;-83
2021/12/27 08:17:42;;;;;;;4.72;4.32;;;8.90;97.20;;;;;;1728087;28;20555;-83
2021/12/27 08:18:33;;;;;;;5.30;4.77;;;8.90;97.20;;;;;;1721188;28;20203;-83
2021/12/27 08:19:25;;;;;;;5.95;5.28;;;8.90;97.20;;;;;;1721395;28;20197;-83
2021/12/27 08:20:17;;;;;;;5.30;4.50;;;8.90;97.20;;;;;;1721572;28;20255;-83
2021/12/27 08:21:08;;;;;;;5.72;5.00;;;8.80;97.20;;;;;;1721563;28;20205;-83
2021/12/27 08:22:00;;;;;;;4.37;4.07;;;8.80;97.20;;;;;;1721436;28;20211;-83
2021/12/27 08:22:51;;;;;;;4.63;4.15;;;8.80;97.20;;;;;;1721446;28;20862;-83
2021/12/27 08:23:42;;;;;;;4.30;4.00;;;8.80;97.20;;;;;;1721312;28;20248;-83
2021/12/27 08:24:33;;;;;;;5.10;4.70;;;8.80;97.20;;;;;;1721535;28;20471;-83
2021/12/27 08:25:25;;;;;;;4.70;4.30;;;8.80;97.20;;;;;;1721243;28;20209;-81
2021/12/27 08:26:18;;;;;;;5.03;4.60;;;8.90;97.20;;;;;;1721823;28;20209;-82
2021/12/27 08:27:09;;;;;;;5.18;4.78;;;8.90;97.20;;;;;;1721422;28;20212;-83
2021/12/27 08:28:00;;;;;;;6.18;4.97;;;8.90;97.20;;;;;;1722606;28;20209;-83
2021/12/27 08:28:54;;;;;;;11.83;9.07;;;9.00;97.20;;;;;;1727910;28;20204;-83
2021/12/27 08:29:45;;;;;;;20.08;15.02;;;9.00;97.20;;;;;;1727973;28;20958;-83
2021/12/27 08:30:37;;;;;;;22.25;16.30;;;9.00;97.20;;;;;;1727851;28;20200;-83
2021/12/27 08:31:28;;;;;;;22.80;17.30;;;9.00;97.20;;;;;;1728198;28;20196;-84
2021/12/27 08:32:19;;;;;;;16.00;13.60;;;9.00;97.20;;;;;;1728285;28;20200;-84
2021/12/27 08:33:11;;;;;;;6.78;6.07;;;9.10;97.20;;;;;;1728367;28;20225;-83
2021/12/27 08:34:03;;;;;;;7.85;6.70;;;9.10;97.20;;;;;;1728316;28;20210;-83
2021/12/27 08:34:55;;;;;;;7.82;7.03;;;9.10;97.20;;;;;;1728520;28;20208;-82
2021/12/27 08:35:46;;;;;;;6.70;6.10;;;9.10;97.20;;;;;;1728536;28;20211;-82
2021/12/27 08:36:37;;;;;;;6.50;5.90;;;9.10;97.20;;;;;;1728382;28;20247;-82
2021/12/27 08:37:29;;;;;;;5.77;5.27;;;9.10;97.20;;;;;;1728077;28;20193;-81
2021/12/27 08:38:20;;;;;;;6.10;5.30;;;9.20;97.20;;;;;;1726269;28;20671;-81
2021/12/27 08:39:12;;;;;;;5.23;4.80;;;9.20;97.20;;;;;;1728061;28;20659;-83
2021/12/27 08:40:04;;;;;;;4.60;4.22;;;9.20;97.20;;;;;;1727943;28;20212;-83
2021/12/27 08:40:56;;;;;;;4.53;4.13;;;9.20;97.20;;;;;;1727735;28;20207;-83
2021/12/27 08:41:47;;;;;;;4.35;3.97;;;9.20;97.20;;;;;;1728099;28;20212;-83
2021/12/27 08:42:39;;;;;;;3.90;3.60;;;9.30;97.20;;;;;;1728201;28;20208;-83
2021/12/27 08:43:30;;;;;;;4.18;3.80;;;9.30;97.20;;;;;;1728220;28;20236;-84
2021/12/27 08:44:22;;;;;;;4.20;3.90;;;9.30;97.20;;;;;;1724421;28;20196;-83
2021/12/27 08:45:13;;;;;;;3.95;3.60;;;9.30;97.20;;;;;;1721870;28;20208;-84
2021/12/27 08:46:04;;;;;;;4.20;3.90;;;9.30;97.20;;;;;;1726581;28;20200;-84
2021/12/27 08:46:55;;;;;;;3.63;3.33;;;9.40;97.20;;;;;;1727674;28;20572;-83
2021/12/27 08:47:47;;;;;;;4.03;3.70;;;9.40;97.20;;;;;;1729442;28;20564;-83
2021/12/27 08:48:38;;;;;;;4.65;4.22;;;9.40;97.20;;;;;;1730192;28;20243;-83
2021/12/27 08:49:30;;;;;;;4.38;3.65;;;9.40;97.20;;;;;;1723503;28;20706;-83
2021/12/27 08:50:23;;;;;;;3.53;3.22;;;9.40;97.20;;;;;;1729239;28;20434;-84
2021/12/27 08:51:14;;;;;;;6.03;3.55;;;9.40;97.20;;;;;;1729548;28;20666;-83
2021/12/27 08:52:06;;;;;;;4.00;3.70;;;9.50;97.20;;;;;;1729539;28;20807;-83
2021/12/27 08:52:56;;;;;;;4.68;4.28;;;9.50;97.20;;;;;;1730112;28;20255;-85
2021/12/27 08:53:48;;;;;;;4.70;4.30;;;9.50;97.20;;;;;;1729530;28;20199;-83
2021/12/27 08:54:39;;;;;;;4.03;3.65;;;9.50;97.20;;;;;;1729219;28;20954;-81
2021/12/27 08:55:31;;;;;;;4.10;3.80;;;9.60;97.20;;;;;;1729457;28;20264;-82
2021/12/27 08:56:22;;;;;;;5.25;4.20;;;9.60;97.20;;;;;;1729280;28;20455;-86
2021/12/27 08:57:14;;;;;;;5.07;4.57;;;9.60;97.20;;;;;;1730785;28;20283;-82
2021/12/27 08:58:06;;;;;;;5.00;4.45;;;9.60;97.20;;;;;;1732228;28;20475;-82
2021/12/27 08:58:58;;;;;;;4.82;4.43;;;9.70;97.20;;;;;;1730587;28;20197;-82
2021/12/27 08:59:49;;;;;;;4.50;4.10;;;9.70;97.20;;;;;;1730894;28;20193;-81
2021/12/27 09:00:40;;;;;;;5.20;4.70;;;9.80;97.20;;;;;;1727882;28;20266;-81
2021/12/27 09:01:31;;;;;;;5.03;4.30;;;9.80;97.20;;;;;;1726835;28;20583;-81
2021/12/27 09:02:23;;;;;;;5.57;4.60;;;9.90;97.20;;;;;;1732771;28;20199;-82
2021/12/27 09:03:14;;;;;;;4.65;4.20;;;9.90;97.20;;;;;;1732961;28;20450;-81
2021/12/27 09:04:07;;;;;;;4.90;4.50;;;9.90;97.20;;;;;;1734185;28;20287;-82
2021/12/27 09:04:58;;;;;;;5.70;5.10;;;10.00;97.20;;;;;;1732934;28;20467;-82
2021/12/27 09:05:51;;;;;;;5.10;4.50;;;10.00;97.20;;;;;;1730006;28;20223;-82
2021/12/27 09:06:42;;;;;;;3.90;3.60;;;10.10;97.20;;;;;;1728593;28;20217;-82
2021/12/27 09:07:34;;;;;;;4.63;4.22;;;10.10;97.20;;;;;;1729829;28;20237;-82
2021/12/27 09:08:24;;;;;;;4.10;3.80;;;10.10;97.20;;;;;;1730959;28;20177;-82
2021/12/27 09:09:16;;;;;;;4.90;4.50;;;10.10;97.20;;;;;;1727913;28;20216;-82
2021/12/27 09:10:09;;;;;;;6.70;6.10;;;10.10;97.20;;;;;;1727809;28;20216;-82
2021/12/27 09:11:00;;;;;;;6.47;5.88;;;10.10;97.20;;;;;;1727817;28;20189;-82
2021/12/27 09:11:51;;;;;;;5.32;4.82;;;10.20;97.20;;;;;;1727702;28;20205;-81
2021/12/27 09:12:44;;;;;;;5.17;4.67;;;10.30;97.20;;;;;;1728839;28;20276;-82
2021/12/27 09:13:36;;;;;;;6.63;5.60;;;10.30;97.20;;;;;;1727893;28;20439;-81
2021/12/27 09:14:28;;;;;;;6.00;5.45;;;10.40;97.20;;;;;;1727548;28;20197;-81
2021/12/27 09:15:19;;;;;;;5.38;4.88;;;10.50;97.20;;;;;;1729556;28;20184;-81
2021/12/27 09:16:13;;;;;;;6.60;5.70;;;10.50;97.20;;;;;;1732634;28;20196;-81
2021/12/27 09:17:04;;;;;;;8.93;7.10;;;10.60;97.20;;;;;;1733572;28;20232;-81
2021/12/27 09:17:56;;;;;;;8.32;7.25;;;10.70;97.20;;;;;;1727501;28;20225;-81
2021/12/27 09:18:47;;;;;;;5.28;4.50;;;10.70;97.20;;;;;;1728013;28;20208;-81
2021/12/27 09:19:38;;;;;;;6.07;4.87;;;10.80;97.20;;;;;;1735003;28;20195;-81
2021/12/27 09:20:29;;;;;;;6.43;5.18;;;10.80;97.20;;;;;;1731648;28;20216;-81
2021/12/27 09:21:22;;;;;;;5.40;4.90;;;10.90;97.20;;;;;;1729013;28;20268;-81
2021/12/27 09:22:13;;;;;;;4.32;3.92;;;10.90;97.20;;;;;;1729158;28;20197;-81
2021/12/27 09:23:05;;;;;;;3.42;3.13;;;11.00;97.20;;;;;;1727833;28;20276;-82
2021/12/27 09:23:56;;;;;;;4.38;3.97;;;11.00;97.20;;;;;;1731513;28;20212;-81
2021/12/27 09:24:48;;;;;;;5.13;4.63;;;11.00;97.20;;;;;;1733715;28;20197;-81
2021/12/27 09:25:38;;;;;;;5.43;4.88;;;11.10;97.20;;;;;;1734235;28;20196;-82
2021/12/27 09:26:30;;;;;;;4.90;4.37;;;11.10;97.20;;;;;;1733194;28;20204;-82
2021/12/27 09:27:21;;;;;;;4.43;4.03;;;11.20;97.20;;;;;;1724291;28;20287;-82
2021/12/27 09:28:13;;;;;;;4.30;3.90;;;11.20;97.20;;;;;;1723989;28;20193;-81
2021/12/27 09:29:04;;;;;;;4.72;4.18;;;11.20;97.20;;;;;;1728738;28;20231;-82
2021/12/27 09:29:55;;;;;;;4.47;4.07;;;11.30;97.20;;;;;;1727667;28;20196;-82
2021/12/27 09:30:46;;;;;;;3.70;3.40;;;11.30;97.20;;;;;;1725527;28;20255;-81
2021/12/27 09:31:38;;;;;;;3.97;3.67;;;11.30;97.20;;;;;;1728975;28;20664;-82
2021/12/27 09:32:29;;;;;;;4.18;3.78;;;11.30;97.20;;;;;;1722160;28;20233;-82
2021/12/27 09:33:22;;;;;;;4.17;3.77;;;11.30;97.20;;;;;;1721985;28;20665;-82
2021/12/27 09:34:12;;;;;;;3.95;3.65;;;11.40;97.20;;;;;;1722191;28;20287;-82
2021/12/27 09:35:07;;;;;;;3.77;3.47;;;11.40;97.20;;;;;;1721864;28;20201;-82
2021/12/27 09:35:58;;;;;;;3.90;3.60;;;11.40;97.20;;;;;;1721962;28;20213;-82
2021/12/27 09:36:51;;;;;;;3.90;3.60;;;11.40;97.20;;;;;;1721908;28;20335;-82
2021/12/27 09:37:42;;;;;;;4.07;3.40;;;11.40;97.20;;;;;;1727783;28;20196;-82
2021/12/27 09:38:33;;;;;;;4.90;3.20;;;11.40;97.20;;;;;;1725255;28;20273;-82
2021/12/27 09:39:25;;;;;;;4.00;3.70;;;11.40;97.20;;;;;;1722222;28;20264;-82
2021/12/27 09:40:16;;;;;;;3.67;3.38;;;11.50;97.20;;;;;;1728076;28;20442;-82
2021/12/27 09:41:08;;;;;;;4.53;3.70;;;11.50;97.20;;;;;;1728524;28;20283;-82
2021/12/27 09:42:00;;;;;;;4.43;4.00;;;11.50;97.20;;;;;;1729529;28;20228;-82
2021/12/27 09:42:53;;;;;;;3.67;3.38;;;11.60;97.20;;;;;;1730242;28;20238;-82
2021/12/27 09:43:44;;;;;;;3.65;3.35;;;11.60;97.20;;;;;;1724354;28;20197;-82
2021/12/27 09:44:36;;;;;;;4.03;3.55;;;11.60;97.20;;;;;;1724468;28;20195;-82
2021/12/27 09:45:27;;;;;;;4.55;3.40;;;11.60;97.20;;;;;;1726291;28;20212;-82
2021/12/27 09:46:19;;;;;;;3.80;3.50;;;11.60;97.20;;;;;;1727335;28;20203;-82
2021/12/27 09:47:10;;;;;;;4.40;3.63;;;11.60;97.20;;;;;;1723283;28;20259;-82
2021/12/27 09:48:02;;;;;;;5.77;3.83;;;11.70;97.20;;;;;;1726846;28;20189;-82
2021/12/27 09:48:55;;;;;;;3.70;3.40;;;11.70;97.20;;;;;;1721949;28;20217;-82
2021/12/27 09:49:48;;;;;;;3.50;3.20;;;11.70;97.20;;;;;;1722548;28;20205;-82
2021/12/27 09:50:42;;;;;;;5.03;4.18;;;11.70;97.20;;;;;;1723234;28;20652;-82
2021/12/27 09:51:37;;;;;;;3.13;2.92;;;11.70;97.20;;;;;;1726738;28;20619;-81
2021/12/27 09:52:29;;;;;;;3.42;3.13;;;11.70;97.20;;;;;;1729081;28;20201;-82
2021/12/27 09:53:21;;;;;;;3.97;3.58;;;11.60;97.20;;;;;;1728647;28;20258;-82
2021/12/27 09:54:13;;;;;;;4.53;4.13;;;11.60;97.20;;;;;;1729163;28;20656;-83
2021/12/27 09:55:06;;;;;;;3.80;3.38;;;11.60;97.20;;;;;;1725862;28;20695;-82
2021/12/27 09:55:57;;;;;;;3.70;3.10;;;11.60;97.20;;;;;;1729702;28;20216;-82
2021/12/27 09:56:48;;;;;;;4.10;3.80;;;11.50;97.20;;;;;;1731176;28;20203;-82
2021/12/27 09:57:40;;;;;;;4.25;3.10;;;11.50;97.20;;;;;;1729956;28;20443;-82
2021/12/27 09:58:32;;;;;;;3.65;3.35;;;11.40;97.20;;;;;;1725523;28;20225;-82
2021/12/27 09:59:23;;;;;;;3.40;3.10;;;11.40;97.20;;;;;;1723548;28;20571;-81
2021/12/27 10:00:17;;;;;;;3.47;3.17;;;11.40;97.20;;;;;;1726861;28;20188;-82
2021/12/27 10:01:08;;;;;;;3.88;3.42;;;11.30;97.20;;;;;;1729311;28;20209;-82
2021/12/27 10:01:59;;;;;;;4.05;3.42;;;11.30;97.20;;;;;;1724299;28;20252;-82
2021/12/27 10:02:53;;;;;;;3.38;3.08;;;11.30;97.20;;;;;;1722430;28;20232;-82
2021/12/27 10:03:47;;;;;;;3.00;2.70;;;11.30;97.20;;;;;;1722113;28;20186;-82
2021/12/27 10:04:38;;;;;;;5.78;3.05;;;11.30;97.20;;;;;;1722607;28;20240;-82
2021/12/27 10:05:32;;;;;;;3.33;3.03;;;11.30;97.20;;;;;;1724030;28;20200;-82
2021/12/27 10:06:25;;;;;;;3.72;3.33;;;11.30;97.20;;;;;;1723199;28;20673;-82
2021/12/27 10:07:20;;;;;;;3.00;2.80;;;11.40;97.20;;;;;;1724509;28;20201;-82
2021/12/27 10:08:17;;;;;;;3.00;2.70;;;11.50;97.20;;;;;;1724269;28;20197;-82
2021/12/27 10:09:08;;;;;;;2.55;2.35;;;11.60;97.20;;;;;;1723530;28;20221;-82
2021/12/27 10:10:00;;;;;;;3.37;3.07;;;11.80;97.20;;;;;;1726457;28;20286;-82
2021/12/27 10:10:51;;;;;;;3.30;3.00;;;11.90;97.20;;;;;;1730098;28;20219;-82
2021/12/27 10:11:46;;;;;;;3.07;2.87;;;12.10;97.20;;;;;;1723969;28;20276;-82
2021/12/27 10:12:37;;;;;;;3.17;2.50;;;12.30;97.20;;;;;;1723190;28;20232;-82
2021/12/27 10:13:29;;;;;;;2.75;2.50;;;12.40;97.20;;;;;;1724106;28;20275;-82
2021/12/27 10:14:24;;;;;;;2.85;2.65;;;12.60;97.20;;;;;;1722938;28;20209;-82
2021/12/27 10:15:17;;;;;;;3.05;2.75;;;12.70;97.20;;;;;;1723196;28;20210;-82
2021/12/27 10:16:14;;;;;;;2.80;2.33;;;12.80;97.20;;;;;;1723411;28;20208;-82
2021/12/27 10:17:10;;;;;;;2.30;2.03;;;13.00;97.20;;;;;;1722775;28;20307;-82
2021/12/27 10:18:09;;;;;;;3.30;2.90;;;13.10;97.20;;;;;;1723479;28;20732;-82
2021/12/27 10:19:02;;;;;;;2.92;2.40;;;13.30;97.20;;;;;;1725847;28;20655;-82
2021/12/27 10:19:55;;;;;;;2.63;2.42;;;13.40;97.20;;;;;;1725319;28;20201;-82
2021/12/27 10:20:46;;;;;;;2.92;2.63;;;13.50;97.20;;;;;;1729414;28;20204;-82
2021/12/27 10:21:41;;;;;;;2.97;2.63;;;13.70;97.20;;;;;;1730116;28;20235;-82
2021/12/27 10:22:36;;;;;;;2.97;2.67;;;13.80;97.20;;;;;;1729882;28;20239;-82
2021/12/27 10:23:29;;;;;;;2.72;2.53;;;13.90;97.20;;;;;;1729396;28;20231;-82
2021/12/27 10:24:27;;;;;;;3.05;2.75;;;14.00;97.20;;;;;;1729814;28;20228;-82
2021/12/27 10:25:20;;;;;;;3.03;2.83;;;14.10;97.20;;;;;;1729704;28;20227;-82
2021/12/27 10:26:16;;;;;;;2.83;2.63;;;14.10;97.20;;;;;;1726602;28;20273;-82
2021/12/27 10:27:08;;;;;;;2.53;2.33;;;14.20;97.20;;;;;;1722649;28;20208;-82
2021/12/27 10:28:01;;;;;;;2.80;2.40;;;14.30;97.20;;;;;;1723134;28;20213;-83
2021/12/27 10:29:07;;;;;;;3.20;3.00;;;14.40;97.20;;;;;;1724038;28;20204;-82
2021/12/27 10:29:58;;;;;;;3.28;2.95;;;14.40;97.20;;;;;;1730580;28;20679;-84
2021/12/27 10:30:50;;;;;;;4.13;2.67;;;14.50;97.20;;;;;;1728780;28;20242;-84
2021/12/27 10:31:53;;;;;;;2.72;2.53;;;14.60;97.20;;;;;;1726949;28;20196;-85